Time;durP1;ratioP1;P1;durP2;ratioP2;P2;SDS_P1;SDS_P2;PMS_P1;PMS_P2;Temp;Humidity;BMP_temperature;BMP_pressure;BME280_temperature;BME280_humidity;BME280_pressure;Samples;Min_cycle;Max_cycle;Signal;HPM_P1;HPM_P2
2023/05/28 00:02:25;;;;;;;;;;;;;;;9.17;59.84;99563.20;68000;1275;1016406;-69
2023/05/28 00:05:28;;;;;;;;;;;;;;;9.15;59.95;99554.55;67921;1275;1015940;-69
2023/05/28 00:08:31;;;;;;;;;;;;;;;9.13;59.41;99553.03;67985;1275;1018223;-68
2023/05/28 00:11:34;;;;;;;;;;;;;;;9.09;59.49;99551.68;68013;1275;1016461;-69
2023/05/28 00:14:36;;;;;;;;;;;;;;;9.11;59.44;99550.21;67949;1275;1016218;-66
2023/05/28 00:17:43;;;;;;;;;;;;;;;9.11;59.40;99546.20;65380;1275;6375128;-67
2023/05/28 00:20:48;;;;;;;;;;;;;;;9.05;59.74;99546.60;67986;1275;1019809;-68
2023/05/28 00:23:52;;;;;;;;;;;;;;;9.00;59.57;99547.68;67988;1275;1016431;-69
2023/05/28 00:26:55;;;;;;;;;;;;;;;8.84;59.28;99542.41;67994;1275;1016395;-69
2023/05/28 00:30:07;;;;;;;;;;;;;;;8.71;59.94;99540.55;67909;1275;1016467;-69
2023/05/28 00:33:09;;;;;;;;;;;;;;;8.69;60.30;99534.33;67980;1275;1016493;-69
2023/05/28 00:36:12;;;;;;;;;;;;;;;8.68;60.36;99534.02;68038;1275;1016264;-68
2023/05/28 00:39:15;;;;;;;;;;;;;;;8.61;60.35;99536.94;67981;1275;1016395;-61
2023/05/28 00:42:20;;;;;;;;;;;;;;;8.46;60.67;99531.79;68016;1275;1016485;-65
2023/05/28 00:45:24;;;;;;;;;;;;;;;8.28;61.26;99528.85;68042;1275;1017045;-70
2023/05/28 00:48:28;;;;;;;;;;;;;;;8.05;61.63;99524.54;68028;1275;1016460;-61
2023/05/28 00:51:32;;;;;;;;;;;;;;;7.94;62.01;99528.97;67975;1275;1016827;-67
2023/05/28 00:54:36;;;;;;;;;;;;;;;7.99;61.29;99527.03;68006;1274;1016477;-68
2023/05/28 00:57:39;;;;;;;;;;;;;;;8.00;61.81;99523.84;67984;1275;1016291;-68
2023/05/28 01:00:43;;;;;;;;;;;;;;;7.97;62.11;99522.73;67977;1275;1016376;-68
2023/05/28 01:03:46;;;;;;;;;;;;;;;7.96;62.30;99522.61;67999;1275;1016348;-68
2023/05/28 01:06:50;;;;;;;;;;;;;;;7.95;61.78;99519.16;68002;1275;1016294;-68
2023/05/28 01:09:56;;;;;;;;;;;;;;;7.92;61.62;99519.11;68021;1275;1016425;-68
2023/05/28 01:12:58;;;;;;;;;;;;;;;7.88;61.48;99514.91;68019;1275;1016783;-61
2023/05/28 01:16:02;;;;;;;;;;;;;;;7.72;62.33;99509.27;67986;1275;1016291;-67
2023/05/28 01:19:08;;;;;;;;;;;;;;;7.60;62.72;99509.16;67945;1275;1016442;-68
2023/05/28 01:22:12;;;;;;;;;;;;;;;7.68;62.93;99503.15;68030;1275;1019007;-61
2023/05/28 01:25:15;;;;;;;;;;;;;;;7.57;63.20;99502.34;67977;1275;1016319;-62
2023/05/28 01:28:19;;;;;;;;;;;;;;;7.62;62.90;99503.54;68008;1275;1016470;-63
2023/05/28 01:31:21;;;;;;;;;;;;;;;7.78;62.28;99499.45;68001;1275;1016437;-60
2023/05/28 01:34:25;;;;;;;;;;;;;;;7.73;62.97;99499.80;67950;1275;1016401;-64
2023/05/28 01:37:28;;;;;;;;;;;;;;;7.82;62.37;99494.25;67958;1275;1016597;-64
2023/05/28 01:40:31;;;;;;;;;;;;;;;7.75;61.97;99496.27;68036;1275;1016302;-65
2023/05/28 01:43:34;;;;;;;;;;;;;;;7.72;61.88;99496.88;67968;1275;1016904;-67
2023/05/28 01:46:37;;;;;;;;;;;;;;;7.55;62.34;99496.82;68020;1275;1016394;-68
2023/05/28 01:49:40;;;;;;;;;;;;;;;7.54;62.04;99491.66;67990;1275;1016160;-68
2023/05/28 01:52:44;;;;;;;;;;;;;;;7.46;62.28;99496.13;68021;1275;1017828;-69
2023/05/28 01:55:47;;;;;;;;;;;;;;;7.42;62.69;99496.27;68022;1275;1016417;-68
2023/05/28 01:58:51;;;;;;;;;;;;;;;7.58;62.85;99486.30;67998;1275;1016292;-62
2023/05/28 02:01:53;;;;;;;;;;;;;;;7.44;63.12;99489.94;68016;1275;1016228;-65
2023/05/28 02:05:04;;;;;;;;;;;;;;;7.43;63.43;99491.20;67994;1275;1016717;-69
2023/05/28 02:08:07;;;;;;;;;;;;;;;7.54;63.18;99490.11;67973;1275;1016485;-68
2023/05/28 02:11:09;;;;;;;;;;;;;;;7.32;63.49;99492.80;67988;1275;1016703;-66
2023/05/28 02:14:16;;;;;;;;;;;;;;;7.50;63.14;99493.35;68014;1275;1016536;-68
2023/05/28 02:17:20;;;;;;;;;;;;;;;7.64;62.30;99489.52;67999;1275;1016512;-61
2023/05/28 02:20:24;;;;;;;;;;;;;;;7.50;62.79;99483.10;67997;1275;1016489;-69
2023/05/28 02:23:27;;;;;;;;;;;;;;;7.48;62.69;99483.16;67963;1275;1016413;-63
2023/05/28 02:26:30;;;;;;;;;;;;;;;7.41;62.44;99478.23;68023;1275;1018100;-68
2023/05/28 02:29:33;;;;;;;;;;;;;;;7.31;62.59;99482.09;67917;1275;1016359;-68
2023/05/28 02:32:37;;;;;;;;;;;;;;;7.25;62.43;99482.98;67989;1275;1016447;-69
2023/05/28 02:35:41;;;;;;;;;;;;;;;7.19;62.68;99479.22;67969;1275;1016308;-68
2023/05/28 02:38:44;;;;;;;;;;;;;;;7.17;62.63;99472.84;67991;1275;1016428;-69
2023/05/28 02:41:48;;;;;;;;;;;;;;;7.22;62.97;99474.39;68014;1275;1016529;-69
2023/05/28 02:44:51;;;;;;;;;;;;;;;7.28;63.01;99473.82;68003;1275;1016007;-66
2023/05/28 02:47:55;;;;;;;;;;;;;;;7.31;62.94;99469.74;67975;1275;1016397;-68
2023/05/28 02:50:57;;;;;;;;;;;;;;;7.24;62.45;99472.22;67999;1275;1016386;-68
2023/05/28 02:54:01;;;;;;;;;;;;;;;7.16;62.74;99472.89;68011;1275;1016165;-67
2023/05/28 02:57:05;;;;;;;;;;;;;;;7.12;62.78;99474.59;67950;1275;1016218;-68
2023/05/28 03:00:09;;;;;;;;;;;;;;;7.15;63.11;99469.80;67992;1275;1016084;-68
2023/05/28 03:03:14;;;;;;;;;;;;;;;7.02;63.40;99470.97;67993;1275;1016297;-63
2023/05/28 03:06:16;;;;;;;;;;;;;;;6.93;63.40;99472.48;67942;1275;1016327;-65
2023/05/28 03:09:19;;;;;;;;;;;;;;;6.98;63.56;99477.16;67960;1275;1016398;-67
2023/05/28 03:12:22;;;;;;;;;;;;;;;7.15;63.77;99478.46;68003;1275;1017079;-67
2023/05/28 03:15:26;;;;;;;;;;;;;;;7.22;63.48;99473.02;67977;1275;1017457;-68
2023/05/28 03:18:29;;;;;;;;;;;;;;;7.35;63.80;99471.48;67999;1275;1016162;-66
2023/05/28 03:21:32;;;;;;;;;;;;;;;7.51;63.80;99474.88;68006;1275;1017076;-63
2023/05/28 03:24:35;;;;;;;;;;;;;;;7.79;63.45;99470.85;67887;1275;1016467;-68
2023/05/28 03:27:39;;;;;;;;;;;;;;;7.94;63.33;99467.67;67985;1275;1015932;-60
2023/05/28 03:30:42;;;;;;;;;;;;;;;8.22;62.45;99461.81;67920;1273;1016513;-60
2023/05/28 03:33:45;;;;;;;;;;;;;;;8.24;62.87;99464.02;67843;1276;1016312;-64
2023/05/28 03:40:27;;;;;;;;;;;;;;;8.60;61.83;99465.16;67969;1275;1016455;-63
2023/05/28 03:43:30;;;;;;;;;;;;;;;8.81;61.89;99467.06;67969;1275;1016266;-62
2023/05/28 03:46:33;;;;;;;;;;;;;;;9.11;61.92;99465.73;68022;1275;1018048;-61
2023/05/28 03:49:36;;;;;;;;;;;;;;;9.29;61.91;99460.40;67970;1275;1016485;-61
2023/05/28 03:52:41;;;;;;;;;;;;;;;9.56;61.35;99460.89;68007;1275;1016207;-62
2023/05/28 03:55:45;;;;;;;;;;;;;;;9.86;60.95;99462.82;67934;1273;1016332;-62
2023/05/28 03:58:49;;;;;;;;;;;;;;;10.20;60.73;99461.89;68014;1275;1016348;-62
2023/05/28 04:01:53;;;;;;;;;;;;;;;10.31;59.95;99464.84;67991;1275;1016373;-63
2023/05/28 04:04:56;;;;;;;;;;;;;;;10.30;59.87;99465.05;67984;1275;1016428;-61
2023/05/28 04:08:00;;;;;;;;;;;;;;;10.28;59.85;99462.02;67917;1275;1016396;-62
2023/05/28 04:11:04;;;;;;;;;;;;;;;10.42;59.87;99461.84;67970;1275;1015995;-62
2023/05/28 04:14:09;;;;;;;;;;;;;;;10.59;60.26;99464.14;67981;1275;1016663;-62
2023/05/28 04:17:13;;;;;;;;;;;;;;;10.85;60.29;99462.80;67977;1275;1016535;-63
2023/05/28 04:20:18;;;;;;;;;;;;;;;11.09;60.42;99457.55;67949;1275;1016463;-61
2023/05/28 04:23:21;;;;;;;;;;;;;;;11.34;60.83;99453.27;67983;1275;1016433;-61
2023/05/28 04:26:25;;;;;;;;;;;;;;;11.75;60.92;99448.03;68002;1275;1018828;-62
2023/05/28 04:29:30;;;;;;;;;;;;;;;12.01;60.25;99445.39;67981;1275;1017740;-62
2023/05/28 04:32:33;;;;;;;;;;;;;;;12.27;60.06;99441.98;68037;1275;1016446;-62
2023/05/28 04:35:36;;;;;;;;;;;;;;;12.61;60.37;99439.77;68001;1275;1016478;-63
2023/05/28 04:38:39;;;;;;;;;;;;;;;12.81;59.19;99441.25;67978;1275;1016486;-63
2023/05/28 04:41:43;;;;;;;;;;;;;;;13.05;58.65;99446.96;67983;1275;1018423;-62
2023/05/28 04:44:47;;;;;;;;;;;;;;;13.45;58.20;99441.39;67954;1275;1016304;-62
2023/05/28 04:47:51;;;;;;;;;;;;;;;13.81;57.68;99439.48;68003;1275;1016442;-62
2023/05/28 04:50:55;;;;;;;;;;;;;;;14.08;57.15;99440.55;67930;1275;1016414;-66
2023/05/28 04:53:59;;;;;;;;;;;;;;;14.36;56.56;99439.39;67959;1275;1016505;-62
2023/05/28 04:57:04;;;;;;;;;;;;;;;14.81;57.02;99442.00;67886;1275;1016702;-62
2023/05/28 05:00:12;;;;;;;;;;;;;;;15.21;56.56;99442.92;68014;1275;1016195;-63
2023/05/28 05:03:16;;;;;;;;;;;;;;;15.26;55.49;99445.24;67988;1275;1016156;-61
2023/05/28 05:06:20;;;;;;;;;;;;;;;15.41;55.58;99449.65;67994;1275;1016534;-61
2023/05/28 05:09:24;;;;;;;;;;;;;;;15.82;55.47;99449.74;67948;1275;1016184;-62
2023/05/28 05:12:28;;;;;;;;;;;;;;;15.90;54.87;99447.92;67963;1275;1016116;-64
2023/05/28 05:15:32;;;;;;;;;;;;;;;16.12;55.77;99446.14;67983;1273;1016825;-64
2023/05/28 05:18:36;;;;;;;;;;;;;;;16.34;55.05;99451.20;68016;1275;1016214;-64
2023/05/28 05:21:38;;;;;;;;;;;;;;;16.53;55.38;99448.95;67990;1275;1015951;-64
2023/05/28 05:24:41;;;;;;;;;;;;;;;16.69;54.46;99450.19;68001;1275;1016490;-67
2023/05/28 05:27:45;;;;;;;;;;;;;;;17.07;54.49;99450.26;67910;1275;1016375;-67
2023/05/28 05:30:48;;;;;;;;;;;;;;;17.33;54.59;99447.20;67944;1275;1016154;-68
2023/05/28 05:33:52;;;;;;;;;;;;;;;17.53;54.31;99444.02;67962;1275;1016148;-67
2023/05/28 05:36:55;;;;;;;;;;;;;;;17.79;52.46;99442.63;67965;1275;1018340;-68
2023/05/28 05:39:57;;;;;;;;;;;;;;;18.44;51.29;99433.98;67999;1275;1016334;-69
2023/05/28 05:43:01;;;;;;;;;;;;;;;18.83;48.92;99434.24;67974;1275;1016306;-64
2023/05/28 05:46:05;;;;;;;;;;;;;;;18.83;47.98;99428.76;67918;1275;1016349;-68
2023/05/28 05:49:09;;;;;;;;;;;;;;;18.96;46.97;99430.83;67960;1275;1015956;-68
2023/05/28 05:52:11;;;;;;;;;;;;;;;19.34;47.28;99426.31;67974;1275;1016075;-63
2023/05/28 05:55:15;;;;;;;;;;;;;;;19.64;47.92;99423.86;67860;1273;1016498;-67
2023/05/28 05:58:22;;;;;;;;;;;;;;;20.13;46.90;99420.00;67813;1275;1017797;-63
2023/05/28 06:01:25;;;;;;;;;;;;;;;20.52;45.29;99420.54;67812;1275;1016446;-64
2023/05/28 06:04:31;;;;;;;;;;;;;;;20.79;45.96;99419.65;67810;1275;1015792;-65
2023/05/28 06:07:35;;;;;;;;;;;;;;;20.87;42.88;99418.86;67788;1275;1016271;-65
2023/05/28 06:10:38;;;;;;;;;;;;;;;20.85;42.71;99417.32;67920;1275;1016292;-66
2023/05/28 06:13:41;;;;;;;;;;;;;;;21.02;43.68;99415.48;67999;1275;1016338;-65
2023/05/28 06:16:45;;;;;;;;;;;;;;;21.20;41.43;99418.95;67946;1275;1016329;-64
2023/05/28 06:19:49;;;;;;;;;;;;;;;21.45;42.76;99416.76;67955;1274;1016189;-64
2023/05/28 06:22:53;;;;;;;;;;;;;;;21.82;41.60;99417.75;67941;1275;1016572;-69
2023/05/28 06:25:56;;;;;;;;;;;;;;;22.12;41.29;99421.80;67967;1275;1017701;-64
2023/05/28 06:28:59;;;;;;;;;;;;;;;22.50;40.80;99423.14;67940;1275;1015840;-64
2023/05/28 06:32:02;;;;;;;;;;;;;;;22.74;40.22;99426.63;67951;1275;1016178;-64
2023/05/28 06:35:06;;;;;;;;;;;;;;;22.83;39.15;99423.20;67927;1275;1016503;-64
2023/05/28 06:38:09;;;;;;;;;;;;;;;22.95;39.53;99425.55;67889;1275;1016293;-69
2023/05/28 06:41:12;;;;;;;;;;;;;;;23.19;39.10;99420.02;67884;1275;1016127;-67
2023/05/28 06:44:15;;;;;;;;;;;;;;;23.53;38.41;99418.23;67929;1275;1016433;-65
2023/05/28 06:47:19;;;;;;;;;;;;;;;23.80;37.51;99417.77;67932;1275;1016310;-68
2023/05/28 06:50:22;;;;;;;;;;;;;;;23.53;35.83;99421.08;67963;1275;1016457;-64
2023/05/28 06:53:25;;;;;;;;;;;;;;;23.59;36.90;99423.30;67976;1275;1015896;-64
2023/05/28 06:56:28;;;;;;;;;;;;;;;23.79;35.66;99421.55;67918;1275;1016124;-69
2023/05/28 06:59:30;;;;;;;;;;;;;;;23.78;35.18;99423.52;67993;1275;1016335;-65
2023/05/28 07:02:33;;;;;;;;;;;;;;;24.16;35.72;99422.29;67940;1275;1016485;-64
2023/05/28 07:05:36;;;;;;;;;;;;;;;24.17;34.75;99422.39;67936;1275;1017274;-64
2023/05/28 07:08:44;;;;;;;;;;;;;;;24.08;34.23;99420.23;67941;1275;1016026;-69
2023/05/28 07:11:47;;;;;;;;;;;;;;;24.03;34.83;99419.98;67914;1275;1016870;-64
2023/05/28 07:14:50;;;;;;;;;;;;;;;24.11;34.41;99415.52;67934;1275;1016014;-70
2023/05/28 07:17:54;;;;;;;;;;;;;;;24.29;34.38;99412.91;67885;1275;1018465;-65
2023/05/28 07:20:57;;;;;;;;;;;;;;;24.48;34.86;99409.58;67950;1275;1016276;-69
2023/05/28 07:24:05;;;;;;;;;;;;;;;24.93;34.84;99406.03;67984;1275;1016449;-70
2023/05/28 07:27:08;;;;;;;;;;;;;;;25.21;34.70;99401.84;67911;1275;1016488;-65
2023/05/28 07:30:11;;;;;;;;;;;;;;;25.59;34.06;99399.83;67944;1275;1016359;-70
2023/05/28 07:33:15;;;;;;;;;;;;;;;25.92;33.15;99398.88;67900;1275;1016155;-65
2023/05/28 07:36:18;;;;;;;;;;;;;;;25.99;32.66;99399.02;67947;1275;1016442;-69
2023/05/28 07:39:21;;;;;;;;;;;;;;;26.15;32.28;99396.77;67973;1275;1016484;-70
2023/05/28 07:42:24;;;;;;;;;;;;;;;26.60;32.75;99398.86;67910;1275;1016426;-65
2023/05/28 07:45:27;;;;;;;;;;;;;;;26.82;31.08;99403.16;67957;1275;1016428;-70
2023/05/28 07:48:30;;;;;;;;;;;;;;;26.69;30.70;99396.13;67887;1275;1016072;-70
2023/05/28 07:51:33;;;;;;;;;;;;;;;26.74;30.80;99397.89;68009;1275;1016076;-69
2023/05/28 07:54:39;;;;;;;;;;;;;;;26.69;30.97;99391.09;67909;1275;1016490;-70
2023/05/28 07:57:42;;;;;;;;;;;;;;;26.54;31.13;99391.73;67934;1275;1016453;-71
2023/05/28 08:00:44;;;;;;;;;;;;;;;26.60;31.55;99387.73;67929;1275;1016446;-69
2023/05/28 08:03:50;;;;;;;;;;;;;;;26.88;30.99;99387.33;67970;1275;1016325;-70
2023/05/28 08:06:55;;;;;;;;;;;;;;;26.82;28.92;99382.78;67977;1275;1016171;-70
2023/05/28 08:09:58;;;;;;;;;;;;;;;26.55;28.90;99378.67;67904;1275;1016446;-69
2023/05/28 08:13:01;;;;;;;;;;;;;;;26.54;29.91;99378.34;67964;1275;1016401;-70
2023/05/28 08:16:05;;;;;;;;;;;;;;;26.70;29.69;99382.27;67937;1275;1016695;-70
2023/05/28 08:19:08;;;;;;;;;;;;;;;26.93;29.53;99376.44;67948;1275;1018766;-70
2023/05/28 08:22:11;;;;;;;;;;;;;;;26.78;28.79;99374.69;67917;1275;1018788;-70
2023/05/28 08:25:17;;;;;;;;;;;;;;;26.51;28.68;99372.95;67952;1275;1015964;-65
2023/05/28 08:28:20;;;;;;;;;;;;;;;26.69;28.78;99373.23;67911;1275;1016453;-66
2023/05/28 08:31:23;;;;;;;;;;;;;;;26.85;28.55;99375.25;67953;1275;1016414;-65
2023/05/28 08:34:36;;;;;;;;;;;;;;;27.00;29.05;99378.96;67938;1275;1016476;-70
2023/05/28 08:37:38;;;;;;;;;;;;;;;27.11;28.12;99375.84;67863;1275;1016418;-68
2023/05/28 08:40:42;;;;;;;;;;;;;;;27.08;27.57;99373.05;67910;1275;1016083;-69
2023/05/28 08:43:46;;;;;;;;;;;;;;;26.66;27.04;99373.77;67967;1275;1016227;-71
2023/05/28 08:46:50;;;;;;;;;;;;;;;26.53;28.30;99372.00;67953;1275;1016107;-70
2023/05/28 08:49:54;;;;;;;;;;;;;;;26.61;27.06;99368.89;67940;1275;1016451;-67
2023/05/28 08:52:57;;;;;;;;;;;;;;;26.74;26.97;99367.61;67986;1275;1016326;-70
2023/05/28 08:56:01;;;;;;;;;;;;;;;26.49;26.81;99361.39;67943;1275;1016460;-71
2023/05/28 08:59:04;;;;;;;;;;;;;;;26.29;27.37;99362.02;67937;1275;1016446;-64
2023/05/28 09:02:07;;;;;;;;;;;;;;;26.19;27.57;99358.91;67959;1275;1015912;-71
2023/05/28 09:05:11;;;;;;;;;;;;;;;26.74;28.19;99359.92;67924;1275;1016522;-71
2023/05/28 09:08:14;;;;;;;;;;;;;;;27.20;27.20;99355.58;67913;1275;1016517;-71
2023/05/28 09:11:18;;;;;;;;;;;;;;;27.29;27.54;99346.82;67954;1275;1016402;-71
2023/05/28 09:14:21;;;;;;;;;;;;;;;27.54;27.44;99345.17;67947;1275;1016462;-71
2023/05/28 09:17:24;;;;;;;;;;;;;;;27.69;26.95;99344.24;67919;1275;1016375;-70
2023/05/28 09:20:28;;;;;;;;;;;;;;;27.39;26.82;99338.35;67955;1275;1016284;-71
2023/05/28 09:23:31;;;;;;;;;;;;;;;27.46;28.14;99339.70;67934;1275;1016418;-68
2023/05/28 09:26:35;;;;;;;;;;;;;;;27.65;27.04;99333.59;67958;1275;1016456;-71
2023/05/28 09:29:39;;;;;;;;;;;;;;;27.32;27.84;99336.41;67927;1275;1016092;-71
2023/05/28 09:32:44;;;;;;;;;;;;;;;27.51;27.26;99333.29;67945;1275;1016465;-70
2023/05/28 09:35:49;;;;;;;;;;;;;;;27.72;27.49;99325.90;67946;1275;1016422;-70
2023/05/28 09:38:52;;;;;;;;;;;;;;;27.94;27.36;99324.54;67922;1275;1016154;-67
2023/05/28 09:41:56;;;;;;;;;;;;;;;28.11;27.90;99319.89;67974;1275;1016510;-70
2023/05/28 09:44:59;;;;;;;;;;;;;;;28.54;27.03;99319.27;67969;1275;1016344;-70
2023/05/28 09:48:03;;;;;;;;;;;;;;;28.86;26.34;99312.65;67915;1275;1016299;-70
2023/05/28 09:51:06;;;;;;;;;;;;;;;28.73;26.55;99312.97;67897;1275;1016401;-71
2023/05/28 09:54:10;;;;;;;;;;;;;;;28.91;26.78;99308.61;67968;1275;1016321;-70
2023/05/28 09:57:12;;;;;;;;;;;;;;;29.08;27.10;99308.59;67932;1275;1016414;-68
2023/05/28 10:00:21;;;;;;;;;;;;;;;29.20;27.58;99307.44;67954;1275;1016200;-70
2023/05/28 10:03:25;;;;;;;;;;;;;;;29.37;26.61;99302.96;67949;1275;1016191;-69
2023/05/28 10:06:28;;;;;;;;;;;;;;;29.60;25.88;99299.94;67919;1275;1016417;-71
2023/05/28 10:09:31;;;;;;;;;;;;;;;29.19;26.09;99289.89;67952;1275;1016361;-70
2023/05/28 10:12:33;;;;;;;;;;;;;;;29.48;26.54;99286.95;67965;1275;1016318;-69
2023/05/28 10:15:36;;;;;;;;;;;;;;;29.52;26.08;99291.15;67906;1275;1016065;-69
2023/05/28 10:18:39;;;;;;;;;;;;;;;29.77;26.71;99286.56;67967;1275;1016539;-71
2023/05/28 10:21:51;;;;;;;;;;;;;;;30.05;26.47;99286.24;67921;1275;1016185;-70
2023/05/28 10:24:55;;;;;;;;;;;;;;;30.24;25.74;99285.10;67903;1275;1016433;-70
2023/05/28 10:27:58;;;;;;;;;;;;;;;30.21;25.68;99282.31;67931;1275;1016180;-70
2023/05/28 10:31:02;;;;;;;;;;;;;;;30.06;25.19;99279.48;67942;1275;1016194;-71
2023/05/28 10:34:05;;;;;;;;;;;;;;;30.12;25.87;99281.62;67944;1275;1016487;-71
2023/05/28 10:37:09;;;;;;;;;;;;;;;30.05;25.48;99279.84;67919;1275;1016221;-70
2023/05/28 10:40:12;;;;;;;;;;;;;;;30.14;25.77;99282.63;67930;1275;1016254;-71
2023/05/28 10:43:14;;;;;;;;;;;;;;;30.15;25.74;99281.37;67933;1275;1016459;-70
2023/05/28 10:46:18;;;;;;;;;;;;;;;30.19;25.78;99276.95;67928;1275;1016283;-69
2023/05/28 10:49:20;;;;;;;;;;;;;;;30.28;25.55;99277.89;67932;1275;1017097;-71
2023/05/28 10:52:24;;;;;;;;;;;;;;;30.41;25.84;99283.11;67888;1275;1016493;-67
2023/05/28 10:55:27;;;;;;;;;;;;;;;30.60;25.52;99269.96;67896;1275;1016474;-65
2023/05/28 10:58:30;;;;;;;;;;;;;;;30.41;24.44;99279.45;67972;1275;1015957;-71
2023/05/28 11:01:33;;;;;;;;;;;;;;;30.27;24.43;99276.65;67910;1275;1016466;-70
2023/05/28 11:04:35;;;;;;;;;;;;;;;30.28;25.01;99275.80;67945;1275;1016924;-68
2023/05/28 11:07:38;;;;;;;;;;;;;;;30.33;25.75;99280.00;67936;1275;1016421;-65
2023/05/28 11:10:41;;;;;;;;;;;;;;;30.57;24.67;99277.55;67917;1275;1016308;-64
2023/05/28 11:13:44;;;;;;;;;;;;;;;30.51;23.19;99271.40;67990;1275;1016550;-68
2023/05/28 11:16:47;;;;;;;;;;;;;;;30.50;25.45;99274.02;67933;1275;1016017;-63
2023/05/28 11:19:51;;;;;;;;;;;;;;;30.84;24.73;99268.04;67923;1275;1016513;-68
2023/05/28 11:22:54;;;;;;;;;;;;;;;31.29;24.84;99265.52;67934;1275;1016482;-63
2023/05/28 11:25:57;;;;;;;;;;;;;;;31.36;23.88;99263.37;67926;1275;1016654;-68
2023/05/28 11:29:00;;;;;;;;;;;;;;;31.10;23.32;99257.29;67974;1275;1016437;-68
2023/05/28 11:32:04;;;;;;;;;;;;;;;30.86;23.99;99257.92;67946;1275;1016476;-67
2023/05/28 11:35:06;;;;;;;;;;;;;;;30.69;24.26;99254.78;67933;1275;1016411;-68
2023/05/28 11:38:10;;;;;;;;;;;;;;;30.66;24.28;99251.63;67972;1275;1016554;-68
2023/05/28 11:41:13;;;;;;;;;;;;;;;30.96;24.62;99247.22;67931;1275;1016089;-65
2023/05/28 11:44:18;;;;;;;;;;;;;;;31.31;24.58;99242.23;67990;1275;1016432;-68
2023/05/28 11:47:21;;;;;;;;;;;;;;;31.35;23.90;99238.95;67932;1275;1016209;-66
2023/05/28 11:50:24;;;;;;;;;;;;;;;30.88;23.49;99236.07;67937;1275;1016331;-68
2023/05/28 11:53:27;;;;;;;;;;;;;;;30.76;23.96;99236.68;67931;1275;1016436;-68
2023/05/28 11:56:31;;;;;;;;;;;;;;;30.89;24.23;99234.26;67950;1275;1016449;-68
2023/05/28 11:59:34;;;;;;;;;;;;;;;31.16;24.69;99229.28;67980;1275;1016465;-68
2023/05/28 12:02:37;;;;;;;;;;;;;;;31.40;25.14;99229.15;67951;1275;1016420;-68
2023/05/28 12:05:40;;;;;;;;;;;;;;;31.51;24.41;99226.33;67959;1275;1016355;-68
2023/05/28 12:08:43;;;;;;;;;;;;;;;31.68;24.42;99230.95;67933;1275;1016525;-65
2023/05/28 12:11:46;;;;;;;;;;;;;;;32.03;23.99;99225.55;67956;1275;1015916;-68
2023/05/28 12:14:50;;;;;;;;;;;;;;;32.24;24.14;99229.35;67973;1275;1016761;-68
2023/05/28 12:17:57;;;;;;;;;;;;;;;32.41;23.40;99223.50;67822;1275;1203014;-68
2023/05/28 12:20:59;;;;;;;;;;;;;;;32.47;23.74;99225.85;67908;1275;1018111;-67
2023/05/28 12:24:02;;;;;;;;;;;;;;;32.38;23.21;99221.84;67934;1275;1016262;-69
2023/05/28 12:27:05;;;;;;;;;;;;;;;32.75;24.01;99220.31;67957;1275;1015964;-68
2023/05/28 12:30:08;;;;;;;;;;;;;;;32.94;23.96;99213.95;67953;1275;1016082;-68
2023/05/28 12:33:12;;;;;;;;;;;;;;;33.02;23.10;99214.73;67904;1275;1016095;-67
2023/05/28 12:36:14;;;;;;;;;;;;;;;33.04;23.00;99209.52;67953;1275;1016474;-66
2023/05/28 12:39:17;;;;;;;;;;;;;;;33.03;23.44;99212.96;67952;1275;1016235;-68
2023/05/28 12:42:20;;;;;;;;;;;;;;;33.03;22.81;99211.66;67917;1275;1018605;-68
2023/05/28 12:45:23;;;;;;;;;;;;;;;33.09;23.29;99210.31;67979;1275;1016912;-68
2023/05/28 12:48:30;;;;;;;;;;;;;;;32.93;21.55;99208.35;67907;1275;1018556;-69
2023/05/28 12:51:34;;;;;;;;;;;;;;;32.28;22.38;99211.17;67921;1275;1016544;-66
2023/05/28 12:54:37;;;;;;;;;;;;;;;31.55;21.38;99208.90;67968;1275;1016323;-68
2023/05/28 12:57:40;;;;;;;;;;;;;;;31.02;21.61;99206.94;67948;1275;1016456;-68
2023/05/28 13:00:43;;;;;;;;;;;;;;;30.83;22.25;99201.98;67960;1275;1016295;-69
2023/05/28 13:03:46;;;;;;;;;;;;;;;31.22;23.58;99197.39;67915;1275;1016446;-69
2023/05/28 13:06:50;;;;;;;;;;;;;;;31.25;22.42;99197.89;67959;1275;1017442;-68
2023/05/28 13:09:53;;;;;;;;;;;;;;;31.19;21.64;99201.45;67956;1275;1016477;-69
2023/05/28 13:12:55;;;;;;;;;;;;;;;30.55;22.13;99200.99;67927;1275;1016505;-69
2023/05/28 13:15:59;;;;;;;;;;;;;;;30.48;21.90;99200.88;67956;1275;1016990;-69
2023/05/28 13:19:05;;;;;;;;;;;;;;;30.19;22.38;99195.64;67989;1275;1016387;-64
2023/05/28 13:22:12;;;;;;;;;;;;;;;29.85;22.63;99197.79;67940;1275;1016081;-69
2023/05/28 13:25:15;;;;;;;;;;;;;;;30.00;22.83;99186.23;67945;1275;1016543;-69
2023/05/28 13:28:19;;;;;;;;;;;;;;;30.36;22.10;99187.52;67942;1275;1016429;-70
2023/05/28 13:31:26;;;;;;;;;;;;;;;30.28;21.94;99186.63;67905;1275;1015857;-69
2023/05/28 13:34:29;;;;;;;;;;;;;;;30.43;22.62;99182.16;67968;1275;1015879;-69
2023/05/28 13:37:33;;;;;;;;;;;;;;;30.36;21.77;99175.70;67917;1275;1016459;-69
2023/05/28 13:40:36;;;;;;;;;;;;;;;30.06;22.21;99175.41;67935;1275;1016557;-68
2023/05/28 13:43:39;;;;;;;;;;;;;;;30.00;23.33;99172.52;67952;1275;1016417;-69
2023/05/28 13:46:42;;;;;;;;;;;;;;;30.17;22.72;99167.61;67930;1275;1016313;-68
2023/05/28 13:49:45;;;;;;;;;;;;;;;30.68;23.12;99161.50;67972;1275;1016762;-66
2023/05/28 13:52:48;;;;;;;;;;;;;;;30.89;22.18;99153.88;67915;1275;1016391;-69
2023/05/28 13:55:50;;;;;;;;;;;;;;;30.57;22.09;99153.85;67930;1275;1016284;-66
2023/05/28 13:58:53;;;;;;;;;;;;;;;30.32;21.70;99153.02;67934;1275;1016032;-68
2023/05/28 14:01:59;;;;;;;;;;;;;;;30.19;21.53;99151.16;67967;1275;1016258;-69
2023/05/28 14:05:03;;;;;;;;;;;;;;;30.13;21.37;99147.80;67948;1275;1016288;-69
2023/05/28 14:08:08;;;;;;;;;;;;;;;30.28;21.89;99144.52;67974;1275;1016408;-69
2023/05/28 14:11:10;;;;;;;;;;;;;;;30.51;22.57;99142.60;67947;1275;1017877;-70
2023/05/28 14:14:14;;;;;;;;;;;;;;;30.87;22.02;99139.11;67925;1275;1018913;-62
2023/05/28 14:17:19;;;;;;;;;;;;;;;30.91;21.82;99139.67;67778;1274;1016448;-67
2023/05/28 14:20:23;;;;;;;;;;;;;;;31.24;22.57;99133.29;67882;1273;1016410;-68
2023/05/28 14:23:25;;;;;;;;;;;;;;;31.47;22.23;99136.21;67901;1275;1016953;-62
2023/05/28 14:26:28;;;;;;;;;;;;;;;31.51;21.78;99134.76;67941;1272;1019300;-66
2023/05/28 14:29:30;;;;;;;;;;;;;;;31.11;20.93;99130.34;67903;1269;1016367;-68
2023/05/28 14:32:33;;;;;;;;;;;;;;;31.05;21.39;99130.80;67901;1272;1016293;-66
2023/05/28 14:35:36;;;;;;;;;;;;;;;31.04;21.16;99125.73;67939;1276;1016410;-67
2023/05/28 14:38:39;;;;;;;;;;;;;;;31.13;21.04;99129.25;67789;1270;1016542;-63
2023/05/28 14:41:42;;;;;;;;;;;;;;;31.00;20.91;99124.34;67862;1270;1016507;-68
2023/05/28 14:44:45;;;;;;;;;;;;;;;31.25;22.08;99124.02;67935;1272;1017167;-67
2023/05/28 14:47:47;;;;;;;;;;;;;;;31.29;21.24;99121.66;67921;1275;1016234;-65
2023/05/28 14:50:50;;;;;;;;;;;;;;;31.38;22.00;99119.41;67922;1275;1016442;-68
2023/05/28 14:53:52;;;;;;;;;;;;;;;31.67;21.88;99116.91;67807;1272;1017005;-67
2023/05/28 14:56:59;;;;;;;;;;;;;;;31.79;21.54;99111.04;67890;1275;1016294;-65
2023/05/28 15:00:02;;;;;;;;;;;;;;;32.04;21.31;99106.46;67904;1275;1016635;-66
2023/05/28 15:03:05;;;;;;;;;;;;;;;32.28;21.31;99102.60;67885;1268;1016494;-67
2023/05/28 15:06:09;;;;;;;;;;;;;;;32.89;21.52;99105.05;67942;1270;1016460;-66
2023/05/28 15:09:12;;;;;;;;;;;;;;;33.70;20.67;99105.20;67889;1270;1016283;-67
2023/05/28 15:12:17;;;;;;;;;;;;;;;34.44;20.39;99104.67;67780;1269;1016720;-66
2023/05/28 15:15:21;;;;;;;;;;;;;;;34.77;19.61;99103.15;67937;1275;1016427;-66
2023/05/28 15:18:25;;;;;;;;;;;;;;;34.75;19.13;99100.55;67950;1275;1017433;-67
2023/05/28 15:21:29;;;;;;;;;;;;;;;34.87;19.84;99104.34;67778;1274;1016487;-75
2023/05/28 15:24:33;;;;;;;;;;;;;;;35.11;18.89;99100.64;67907;1276;1016142;-70
2023/05/28 15:27:38;;;;;;;;;;;;;;;35.35;18.76;99098.79;67951;1275;1016503;-75
2023/05/28 15:30:41;;;;;;;;;;;;;;;35.60;19.04;99097.85;67904;1269;1016473;-68
2023/05/28 15:33:45;;;;;;;;;;;;;;;35.88;19.10;99099.95;67910;1269;1016516;-64
2023/05/28 15:36:51;;;;;;;;;;;;;;;36.11;19.33;99094.94;67777;1275;1016389;-64